x

9439040 - Astoria, Or (asto3) Weather Station

9:30 - Wed 27th Jul 2016 All times are PDT. -7 hours from GMT.

  • Wind
    3mph, 6mph gusts
  • Sea Temp 70°f
  • Aire Temp 60°f
  • Sea Pressure 1021.3mb
  • 9439040 - Astoria, Or
  • 9439040 - Astoria, Or

More Historic Weather Station data

Upgrade to MSW Pro to gain access to the past 30 days of data for over 8000 Wavebouys and Weather Stations around the globe.

Join Pro

Comparision Forecast

View Surf forecast
   
mié 07/27 9:30 3 6 mph 1021.3mb 70f 60f
9:24 2 5 mph 1021.3mb 70f 60f
9:18 1 5 mph 1021.3mb 70f 60f
9:12 1 6 mph 1021.4mb 70f 60f
9:06 1 7 mph 1021.4mb 70f 61f
9:00 1 5 mph 1021.3mb 70f 60f
8:54 5
mph
1021.3mb 70f 60f
8:48  -  5 mph 1021.2mb 70f 60f
8:42 5 6 mph 1021.2mb 70f 59f
8:36 3 5 mph 1021.2mb 70f 59f
8:30 3 5 mph 1021.1mb 70f 59f
8:24 2 5 mph 1021.1mb 70f 60f
8:18 1 3 mph 1021mb 70f 59f
8:12 1 3 mph 1020.9mb 70f 59f
8:06 2 3 mph 1020.9mb 70f 59f
8:00  -  2 mph 1020.9mb 70f 59f
7:54  -  1 mph 1020.9mb 70f 59f
7:48 1 3 mph 1020.9mb 70f 59f
7:42 3 5 mph 1020.8mb 70f 59f
7:36 3 5 mph 1020.8mb 70f 59f
7:30 5 6 mph 1020.8mb 70f 59f
7:24 3 7 mph 1020.8mb 70f 59f
7:18 6 8 mph 1020.8mb 70f 59f
7:12 6 7 mph 1020.8mb 70f 59f
7:06 5 7 mph 1020.8mb 70f 59f
7:00 6 8 mph 1020.8mb 70f 59f
6:54 6 9 mph 1020.7mb 70f 59f
6:48 7 9 mph 1020.6mb 70f 59f
6:42 2 5 mph 1020.6mb 70f 59f
6:36  -  2 mph 1020.7mb 70f 59f
6:30 1 3 mph 1020.7mb 70f 59f
6:24 2 3 mph 1020.8mb 70f 58f
6:18 3 5 mph 1020.8mb 70f 58f
6:12 3 5 mph 1020.8mb 70f 58f
6:06 2 6 mph 1020.7mb 70f 58f
6:00 5 6 mph 1020.7mb 70f 58f
5:54 1 3 mph 1020.6mb 70f 58f
5:48 2 3 mph 1020.5mb 70f 58f
5:42 2 3 mph 1020.5mb 70f 58f
5:36 2 3 mph 1020.5mb 70f 58f
5:30 3 5 mph 1020.5mb 70f 58f
5:24 3
mph
1020.5mb 70f 58f
5:18 2
mph
1020.5mb 70f 58f
5:12 2 3 mph 1020.5mb 70f 58f
5:06 2 3 mph 1020.5mb 70f 58f
5:00 2 3 mph 1020.5mb 70f 58f
4:54 3 5 mph 1020.5mb 70f 58f
4:48 3 5 mph 1020.5mb 70f 58f
4:42 3 5 mph 1020.5mb 70f 58f
4:36 3 5 mph 1020.5mb 70f 58f
4:30 2 3 mph 1020.4mb 70f 59f
4:24  -  3 mph 1020.4mb 70f 58f
4:18 2 5 mph 1020.5mb 69f 58f
4:12 2 5 mph 1020.5mb 69f 58f
4:06 2 6 mph 1020.4mb 69f 58f
4:00 2 3 mph 1020.4mb 69f 58f
3:54 2 5 mph 1020.4mb 69f 58f
3:48 5 6 mph 1020.4mb 69f 58f
3:42 2
mph
1020.4mb 69f 59f
3:36 2 3 mph 1020.4mb 69f 59f
3:30 2 6 mph 1020.4mb 69f 59f
3:24 2 3 mph 1020.5mb 69f 59f
3:18 3 6 mph 1020.4mb 69f 59f
3:12 3 5 mph 1020.4mb 69f 59f
3:06 3 6 mph 1020.4mb 69f 59f
3:00 2 3 mph 1020.5mb 69f 59f
2:54  -  6 mph 1020.4mb 69f 59f
2:48 5 7 mph 1020.4mb 69f 58f
2:42 6 8 mph 1020.4mb 69f 58f
2:36 8 10 mph 1020.4mb 69f 58f
2:30 6 8 mph 1020.4mb 69f 59f
2:24 5 8 mph 1020.5mb 69f 59f
2:18 3 6 mph 1020.5mb 69f 59f
2:12 5 6 mph 1020.5mb 68f 59f
2:06 5 7 mph 1020.6mb 68f 59f
2:00 6 8 mph 1020.6mb 68f 59f
1:54 5 6 mph 1020.6mb 68f 59f
1:48 5 7 mph 1020.7mb 68f 59f
1:42 6 9 mph 1020.6mb 68f 59f
1:36 5 7 mph 1020.7mb 68f 59f
1:30 7 8 mph 1020.7mb 68f 59f
1:24 6 8 mph 1020.8mb 68f 59f
1:18 6 8 mph 1020.8mb 68f 59f
1:12 2 10 mph 1020.8mb 68f 59f
1:06 7 9 mph 1020.9mb 68f 59f
1:00 6 8 mph 1020.9mb 68f 59f
12:54 5 7 mph 1020.9mb 68f 59f
12:48 6 8 mph 1021mb 68f 59f
12:42 7 9 mph 1020.9mb 68f 59f
12:36 6 9 mph 1021mb 68f 59f
12:30 6 10 mph 1021mb 68f 59f
12:24 9 13 mph 1021mb 68f 60f
12:18 6 10 mph 1021mb 68f 60f
12:12 3 5 mph 1021.1mb 68f 60f
12:06 3 6 mph 1021.1mb 68f 60f
12:00 2 6 mph 1021.2mb 68f 60f
mar 07/26 11:54 5 9 mph 1021.3mb 68f 60f
11:48 6 8 mph 1021.3mb 68f 60f
11:42 8 9 mph 1021.3mb 68f 59f
11:36 7 9 mph 1021.3mb 68f 59f
11:30 6 10 mph 1021.3mb 68f 59f
11:24 8 11 mph 1021.3mb 68f 59f
11:18 8 13 mph 1021.4mb 68f 59f
11:12 9 13 mph 1021.3mb 68f 59f
11:06 11 15 mph 1021.4mb 68f 59f
11:00 13 15 mph 1021.4mb 68f 59f
10:54 10 16 mph 1021.4mb 68f 59f
10:48 15 16 mph 1021.5mb 68f 59f
10:42 13 14 mph 1021.5mb 68f 59f
10:36 11 15 mph 1021.6mb 68f 59f
10:30 13 15 mph 1021.6mb 68f 59f
10:24 8 10 mph 1021.6mb 68f 60f
10:18 6 8 mph 1021.7mb 68f 60f
10:12 5 9 mph 1021.7mb 68f 60f
10:06 7 11 mph 1021.7mb 68f 60f
10:00 8 10 mph 1021.7mb 69f 60f
9:54 8 11 mph 1021.7mb 69f 60f
9:48 7 10 mph 1021.7mb 69f 60f
9:42 6 9 mph 1021.7mb 69f 60f
9:36 6 8 mph 1021.7mb 69f 60f
9:30 6 9 mph 1021.6mb 69f 60f
9:24 7 10 mph 1021.6mb 69f 60f
9:18 7 9 mph 1021.6mb 69f 60f
9:12 5 10 mph 1021.6mb 69f 61f
9:06 7 9 mph 1021.5mb 69f 61f
9:00 7 11 mph 1021.5mb 69f 61f
8:54 6 10 mph 1021.4mb 69f 61f
8:48 9 11 mph 1021.4mb 69f 61f
8:42 9 14 mph 1021.4mb 69f 61f
8:36 9 13 mph 1021.4mb 69f 61f
8:30 7 13 mph 1021.3mb 69f 61f
8:24 6 13 mph 1021.3mb 69f 61f
8:18 9 15 mph 1021.3mb 69f -
8:12 7 10 mph 1021.3mb 69f -
8:06 8 11 mph 1021.3mb 69f -
8:00 7 11 mph - 69f -
7:54 6 10 mph - 69f -
7:48 6 8 mph 1021.3mb 69f -
7:42 6 10 mph 1021.3mb 69f -
7:36 3 10 mph 1021.2mb 69f -
7:30 6 11 mph - 69f 63f
7:24 9 11 mph - 69f 62f
7:18 10 14 mph 1021.2mb 69f 63f
7:12 8 11 mph 1021.2mb 69f 63f
7:06 7 11 mph 1021.2mb 69f 63f
7:00  -  mph - 69f 63f
6:54  -  mph - 69f 63f
6:48 7 10 mph - - -
6:42 6 10 mph - - -
6:36 8 11 mph - - -
6:30 9 14 mph - 70f -
6:24 11 15 mph - 70f -
6:18 11 14 mph - 70f 63f
6:12 9 13 mph - 70f 64f
6:06 11 16 mph - 71f 64f
6:00  -  mph - 71f 64f
5:54  -  mph - 71f 64f
5:48 10 15 mph 1021.4mb - -
5:42 9 15 mph 1021.4mb - -
5:36 10 14 mph 1021.4mb - -
5:30 11 15 mph - 71f 64f
5:24 14 16 mph - 71f 64f
5:18  -  mph - 71f 65f
5:12  -  mph - 71f 65f
5:06  -  mph - 71f 68f
5:00  -  mph - 71f -
4:54  -  mph - 71f -
4:48  -  mph - 71f -
4:42  -  mph - 71f -
4:36  -  mph - 71f -
4:30 3 9 mph - 71f 67f
4:24 3 9 mph - 71f 67f
4:18 3 10 mph 1021.8mb 71f -
4:12 6 8 mph 1021.8mb 71f -
4:06 2 6 mph 1021.8mb 71f -
4:00  -  mph 1021.8mb 71f -
3:54  -  mph 1021.8mb 71f -
3:48  -  mph 1021.8mb 71f -
3:42  -  mph 1021.9mb 71f -
3:36  -  mph 1021.9mb 71f -
3:30 8 14 mph 1022mb 71f 66f
3:24 11 15 mph 1022.1mb 71f 65f
3:18 8 13 mph 1022.1mb 71f -
3:12 9 14 mph 1022.1mb 71f -
3:06 6 9 mph 1022.1mb 71f -
3:00  -  mph - 71f 67f
2:54  -  mph - 71f 68f
2:48 2 6 mph - 71f -
2:42  -  6 mph - 71f -
2:36  -  6 mph - 71f -
2:30 3 7 mph 1022.2mb 71f 66f
2:24 2 7 mph 1022.2mb 71f 67f
2:18 1 8 mph 1022.3mb 71f 67f
2:12 1 9 mph 1022.4mb 71f 67f
2:06 2 9 mph 1022.4mb 71f 67f
2:00 2 7 mph 1022.4mb 70f 66f
1:54 1 8 mph 1022.4mb 70f 67f
1:48 1 8 mph 1022.4mb 70f 67f
1:42 3 11 mph 1022.3mb 70f 66f
1:36 8 11 mph 1022.2mb 70f 65f
1:30 6 13 mph 1022.1mb 70f 65f
1:24 9 11 mph 1022.1mb 69f 65f
1:18 7 10 mph 1022.1mb 69f 65f
1:12 9 11 mph 1022.2mb 69f 65f
1:06 6 9 mph 1022.2mb 69f 65f
1:00 6 10 mph 1022.2mb 69f 65f
12:54 2 8 mph 1022.2mb 69f 66f
12:48 3 9 mph 1022.2mb 69f 66f
12:42 2 8 mph 1022.2mb 69f 67f
12:36  -  7 mph 1022.3mb 69f 67f
12:30 2 6 mph 1022.5mb 69f 65f
12:24 3 6 mph 1022.5mb 69f 64f
12:18 3 6 mph 1022.5mb 69f 64f
12:12 2 5 mph 1022.5mb 69f 64f
12:06 3 5 mph 1022.5mb 69f 64f
12:00 2 3 mph 1022.5mb 69f 64f
11:54 2 5 mph 1022.4mb 69f 65f
11:48 2 5 mph 1022.4mb 69f 64f
11:42 2 6 mph 1022.5mb 69f 64f
11:36 3 5 mph 1022.4mb 69f 64f
11:30  -  6 mph 1022.5mb 69f 64f
11:24 5 7 mph 1022.7mb 69f 63f
11:18 6 10 mph 1022.7mb 69f 63f
11:12 9 10 mph 1022.7mb 69f 63f
11:06 5 8 mph 1022.8mb 69f 62f
11:00 3 6 mph 1022.7mb 69f 63f
10:54 6 9 mph 1022.8mb 69f 62f
10:48 6 9 mph 1022.8mb 69f 62f
10:42 6 9 mph 1022.6mb 69f 62f
10:36 7 9 mph 1022.7mb 69f 62f
10:30 5 8 mph 1022.6mb 69f 62f
10:24 7 9 mph 1022.6mb 69f 62f
10:18 6 8 mph 1022.7mb 69f 62f
10:12 9 11 mph 1022.7mb 69f 62f
10:06 11 14 mph 1022.8mb 69f 62f
10:00 8 13 mph 1022.8mb 69f 62f
9:54 8 13 mph 1022.8mb 69f 62f
9:48 7 9 mph 1022.8mb 69f 62f
9:42 8 11 mph 1022.7mb 69f 62f
9:36 8 14 mph 1022.8mb 69f 61f
9:30 7 14 mph 1022.8mb 69f 62f
9:24 9 11 mph 1022.7mb 69f 62f
9:18 9 11 mph 1022.7mb 69f 61f
9:12 5 9 mph 1022.7mb 69f 61f
9:06 7 10 mph 1022.7mb 69f 61f
9:00 6 9 mph 1022.7mb 69f 61f
8:54 8 13 mph 1022.7mb 69f 61f
8:48 9 11 mph 1022.7mb 69f 61f
8:42 5 8 mph 1022.6mb 69f 61f
8:36 6 11 mph 1022.6mb 70f 61f
8:30 7 10 mph 1022.6mb 70f 61f
8:24 8 11 mph 1022.6mb 70f 61f
8:18 8 10 mph 1022.6mb 70f 61f
8:12 8 10 mph 1022.5mb 70f 61f
8:06 6 9 mph 1022.5mb 70f 61f
8:00 6 9 mph 1022.5mb 69f 61f
7:54 8 10 mph 1022.6mb 69f 61f
7:48 6 10 mph 1022.5mb 69f 60f
7:42 7 8 mph 1022.5mb 69f 61f
7:36 6 9 mph 1022.4mb 69f 61f
7:30 8 11 mph 1022.4mb 69f 61f
7:24 7 9 mph 1022.4mb 70f 61f
7:18 6 13 mph 1022.4mb 70f 60f
7:12 9 11 mph 1022.3mb 70f 61f
7:06 10 14 mph 1022.2mb 70f 61f
7:00 10 14 mph 1022.2mb 70f 61f
6:54 10 14 mph 1022.1mb 70f 61f
6:48 10 14 mph 1022.1mb 70f 61f
6:42 9 13 mph 1022mb 70f 61f
6:36 11 15 mph 1022mb 70f 61f
6:30 8 13 mph 1022mb 70f 61f
6:24 7 16 mph 1021.9mb 70f 61f
6:18 10 15 mph 1021.9mb 70f 61f
6:12 11 14 mph 1021.9mb 70f 61f
6:06 11 15 mph 1021.8mb 70f 61f
6:00 10 14 mph 1021.8mb 70f 61f
5:54 7 10 mph 1021.7mb 70f 61f
5:48 10 15 mph 1021.7mb 70f 61f
5:42 10 14 mph 1021.7mb 70f 61f
5:36 11 15 mph 1021.7mb 70f 61f
5:30 8 14 mph 1021.7mb 70f 61f
5:24 7 11 mph 1021.6mb 70f 61f
5:18 9 13 mph 1021.6mb 70f 61f
5:12 9 11 mph 1021.5mb 70f 61f
5:06 8 11 mph 1021.4mb 70f 61f
5:00 8 11 mph 1021.4mb 70f 61f
4:54 6 11 mph 1021.5mb 70f 61f
4:48 9 14 mph 1021.6mb 70f 61f
4:42 9 14 mph 1021.5mb 70f 61f
4:36 6 8 mph 1021.5mb 70f 61f
4:30 9 13 mph 1021.4mb 70f 61f
4:24 8 10 mph 1021.5mb 70f 61f
4:18 7 9 mph 1021.5mb 70f 61f
4:12 3 11 mph 1021.5mb 70f 61f
4:06 3 10 mph 1021.5mb 70f 61f
4:00 6 9 mph 1021.5mb 70f 61f
3:54 5 11 mph 1021.5mb 70f 61f
3:48 6 8 mph 1021.5mb 70f 61f
3:42 7 11 mph 1021.5mb 70f 61f
3:36 6 9 mph 1021.5mb 69f 61f
3:30 8 10 mph 1021.5mb 69f 61f
3:24 8 14 mph 1021.5mb 69f 60f
3:18 10 13 mph 1021.4mb 69f 61f
3:12 6 8 mph 1021.4mb 69f 60f
3:06 5 10 mph 1021.4mb 69f 61f
3:00 5 7 mph 1021.4mb 69f 61f
2:54 5 11 mph 1021.5mb 69f 61f
2:48 9 11 mph 1021.4mb 69f 60f
2:42 7 11 mph 1021.4mb 69f 61f
2:36 6 10 mph 1021.4mb 69f 61f
2:30 5 6 mph 1021.3mb 69f 60f
2:24 2 8 mph 1021.3mb 69f 61f
2:18 3 9 mph 1021.3mb 69f 61f
2:12 5 8 mph 1021.3mb 69f 61f
2:06 7 11 mph 1021.3mb 69f 61f
2:00 7 10 mph 1021.3mb 69f 60f
1:54 7 10 mph 1021.3mb 69f 60f
1:48 6 14 mph 1021.4mb 69f 61f
1:42 10 14 mph 1021.4mb 69f 61f
1:36 7 10 mph 1021.4mb 69f 60f
1:30 6 10 mph 1021.3mb 69f 60f
1:24 9 13 mph 1021.3mb 69f 60f
1:18 10 14 mph 1021.4mb 69f 61f
1:12 8 11 mph 1021.3mb 69f 61f
1:06 8 13 mph 1021.3mb 69f 60f
1:00 8 14 mph 1021.3mb 69f 60f
12:54 9 14 mph 1021.3mb 69f 61f
12:48 8 13 mph 1021.3mb 69f 61f
12:42 8 13 mph 1021.3mb 69f 61f
12:36 6 13 mph 1021.3mb 69f 61f
12:30 6 13 mph 1021.3mb 69f 61f
12:24 6 11 mph 1021.2mb 69f 61f
12:18 6 10 mph 1021.2mb 69f 61f
12:12 7 9 mph 1021.2mb 69f 61f
12:06 7 10 mph 1021.2mb 69f 61f
12:00 8 9 mph 1021.2mb 69f 61f
lun 07/25 11:54 8 11 mph 1021.2mb 69f 60f
11:48 9 13 mph 1021.2mb 69f 61f
11:42 8 11 mph 1021.2mb 69f 60f
11:36 8 11 mph 1021.2mb 69f 60f
11:30 8 10 mph 1021.2mb 69f 61f
11:24 8 10 mph 1021.2mb 69f 61f
11:18 6 9 mph 1021.2mb 69f 61f
11:12 6 9 mph 1021.3mb 69f 61f
11:06 9 13 mph 1021.3mb 69f 61f
11:00 8 11 mph 1021.3mb 69f 61f
10:54 7 11 mph 1021.3mb 69f 61f
10:48 10 13 mph 1021.2mb 69f -
10:42 9 14 mph 1021.3mb 69f -
10:36 9 15 mph 1021.3mb 69f -
10:30 11 14 mph 1021.3mb 68f 61f
10:24 10 14 mph 1021.3mb 69f 61f
10:18 9 15 mph 1021.3mb 68f 61f
10:12 11 15 mph 1021.3mb 68f 61f
10:06 11 15 mph 1021.3mb 69f 61f
10:00 10 13 mph 1021.3mb 69f 61f
9:54 10 14 mph 1021.2mb 69f 61f
9:48 9 13 mph 1021.1mb 69f 62f
9:42 8 11 mph 1021mb 69f 61f
9:36 7 11 mph 1021mb 69f 61f
9:30 7 11 mph 1021mb 69f 61f
9:24 8 13 mph 1020.8mb 69f 62f
9:18 8 13 mph 1020.8mb 69f 61f
9:12 8 11 mph 1020.7mb 69f 62f
9:06 13 15 mph 1020.7mb 69f 62f
9:00 11 15 mph 1020.7mb 69f 62f
8:54 10 14 mph 1020.6mb 69f 62f
8:48 8 13 mph 1020.6mb 69f 62f
8:42 8 13 mph 1020.6mb 69f 62f
8:36 11 14 mph 1020.6mb 70f 62f
8:30 8 13 mph 1020.5mb 70f 62f
8:24 8 10 mph 1020.5mb 70f 62f
8:18 7 13 mph 1020.5mb 70f 63f
8:12 5 10 mph 1020.5mb 70f 63f
8:06 8 9 mph 1020.4mb 69f 62f
8:00 7 11 mph - 69f 62f
7:54 9 14 mph - 69f 63f
7:48 9 13 mph 1020.3mb - -
7:42 11 17 mph 1020.3mb - -
7:36 10 15 mph 1020.2mb - -
7:30 11 16 mph - 69f 63f
7:24 14 16 mph - 69f 63f
7:18 14 16 mph - 69f 63f
7:12 14 17 mph - 69f 64f
7:06 6 13 mph - 69f 64f
7:00 8 13 mph - 69f 64f
6:54 9 14 mph - 69f 64f
6:48 5 10 mph 1020.1mb 69f -
6:42 6 9 mph 1020.1mb 69f -
6:36 8 11 mph 1020mb 69f -
6:30 8 13 mph - 69f -
6:24 9 13 mph - 69f -
6:18 13 15 mph - 69f 65f
6:12 6 9 mph - 69f 66f
6:06 1 3 mph - 70f 67f
6:00  -  6 mph - 70f 67f
5:54 2 5 mph - 70f 67f
5:48 2 6 mph - - -
5:42 2 7 mph - - -
5:36 2 6 mph - - -
5:30 1 3 mph - 70f 68f
5:24 2 9 mph - 70f 67f
5:18 2 5 mph - 71f -
5:12 1 11 mph - 71f -
5:06 9 14 mph - 71f -
5:00  -  mph - 71f 67f
4:54  -  mph - 71f 66f
4:48 2 9 mph 1019.9mb - -
4:42 3 11 mph 1019.9mb - -
4:36 3 9 mph 1019.8mb - -
4:30  -  mph - 71f -
4:24  -  mph - 71f -
4:18 6 13 mph 1019.8mb 71f -
4:12 2 6 mph 1019.8mb 71f -
4:06 5 10 mph 1019.8mb 71f -
4:00  -  mph - 71f 68f
3:54  -  mph - 71f 67f
3:48 5 15 mph 1019.8mb 71f -
3:42 7 14 mph 1019.8mb 71f -
3:36 7 15 mph 1019.8mb 71f -
3:30 8 17 mph 1019.8mb 71f -
3:24 14 18 mph 1019.8mb 71f -
3:18 13 20 mph - 71f 66f
3:12 10 17 mph - 71f 66f
3:06 11 17 mph - 71f 66f
3:00  -  mph - 71f -
2:54  -  mph - 71f -
2:48  -  mph - 71f 66f
2:42  -  mph - 71f 66f
2:36  -  mph - 71f 66f
2:30 10 16 mph 1019.8mb 71f 66f
2:24 9 16 mph 1019.8mb 71f 66f
2:18 7 16 mph 1019.8mb 70f 67f
2:12 6 17 mph 1019.8mb 70f 66f
2:06 5 14 mph 1019.7mb 70f 67f
2:00 8 15 mph 1019.8mb 70f 66f
1:54 9 15 mph 1019.8mb 70f 66f
1:48 6 18 mph 1019.8mb 70f 66f
1:42 14 18 mph 1019.8mb 70f 66f
1:36 6 15 mph 1019.8mb 70f 67f
1:30 9 16 mph 1019.7mb 70f 67f
1:24 13 16 mph 1019.8mb 70f 66f
1:18 9 16 mph 1019.8mb 70f 66f
1:12 6 16 mph 1019.8mb 70f 66f
1:06 7 16 mph 1019.8mb 70f 67f
1:00 9 15 mph 1019.8mb 70f 67f
12:54 7 14 mph 1019.8mb 70f 67f
12:48 10 14 mph 1019.8mb 70f 67f
12:42 10 15 mph 1019.8mb 70f 66f
12:36 9 14 mph 1019.8mb 70f 66f
12:30 8 13 mph 1019.8mb 70f 66f
12:24 9 13 mph 1019.8mb 70f 66f
12:18 10 13 mph 1019.8mb 70f 66f
12:12 9 13 mph 1019.8mb 70f 66f
12:06 8 11 mph 1019.8mb 69f 66f
12:00 7 10 mph 1019.8mb 69f 66f
11:54 7 11 mph 1019.8mb 69f 65f
11:48 7 11 mph 1019.9mb 69f 65f
11:42 7 11 mph 1020mb 68f 65f
11:36 8 13 mph 1020mb 68f 65f
11:30 5 10 mph 1020mb 69f 65f
11:24 3 8 mph 1020mb 69f 65f
11:18 3 9 mph 1020mb 69f 65f
11:12 6 9 mph 1020mb 69f 65f
11:06 7 10 mph 1020.1mb 69f 64f
11:00 5 8 mph 1020mb 69f 64f
10:54 6 9 mph 1020.1mb 69f 64f
10:48 6 9 mph 1020mb 69f 64f
10:42 6 9 mph 1020mb 69f 64f
10:36 6 10 mph 1019.9mb 68f 64f
10:30 5 7 mph 1019.9mb 68f 64f
10:24 5 6 mph 1019.8mb 68f 63f
10:18 3 8 mph 1019.8mb 68f 64f
10:12 3 6 mph 1019.8mb 69f 64f
10:06 2 5 mph 1019.8mb 69f 63f
10:00 3 6 mph 1019.9mb 69f 63f
9:54 3 6 mph 1019.9mb 69f 63f
9:48 2 3 mph 1019.9mb 69f 63f
9:42 2 5 mph 1019.9mb 69f 63f
9:36  -  1 mph 1019.9mb 69f 63f
9:30 1 2 mph 1019.8mb 69f 62f
9:24 1 3 mph 1019.9mb 68f 62f
9:18 2 3 mph 1019.9mb 68f 62f
9:12  -  2 mph 1019.9mb 68f 63f
9:06 2 3 mph 1019.9mb 67f 62f
9:00  -  1 mph 1019.8mb 67f 63f
8:54 1 2 mph 1019.8mb 67f 62f
8:48 1 3 mph 1019.8mb 67f 62f
8:42 2 5 mph 1019.8mb 68f 61f
8:36 2 5 mph 1019.8mb 68f 61f
8:30 2 7 mph 1019.7mb 68f 61f
8:24 5 7 mph 1019.7mb 68f 61f
8:18 5 6 mph 1019.7mb 68f 61f
8:12 5 6 mph 1019.7mb 66f 61f
8:06 2 6 mph 1019.7mb 66f 61f
8:00 6 7 mph 1019.7mb 69f 60f
7:54 5 6 mph 1019.6mb 69f 61f
7:48 5 7 mph 1019.7mb 69f 61f
7:42 5 6 mph 1019.6mb 69f 61f
7:36 3 6 mph 1019.6mb 69f 60f
7:30 2 5 mph 1019.6mb 69f 60f
7:24 3 5 mph 1019.4mb 69f 60f
7:18 1 3 mph 1019.4mb 69f 60f
7:12 1 2 mph 1019.3mb 69f 60f
7:06 1 5 mph 1019.3mb 69f 60f
7:00 2 5 mph 1019.3mb 69f 60f
6:54 1 3 mph 1019.3mb 69f 60f
6:48 3 6 mph 1019.2mb 69f 60f
6:42 2 6 mph 1019.2mb 69f 60f
6:36 2 6 mph 1019.2mb 69f 60f
6:30 3 6 mph 1019.2mb 69f 60f
6:24 1 3 mph 1019.2mb 69f 60f
6:18 2 5 mph 1019.1mb 69f 60f
6:12  -  2 mph 1019.1mb 69f 60f
6:06 1 2 mph 1019.1mb 69f 61f
6:00 1 5 mph 1019mb 69f 61f
5:54 2 5 mph 1019mb 69f 60f
5:48 3 5 mph 1018.9mb 69f 60f
5:42 5
mph
1018.9mb 69f 60f
5:36 6 8 mph 1018.8mb 69f 60f
5:30 5 7 mph 1018.7mb 69f 60f
5:24 5 7 mph 1018.7mb 69f 60f
5:18 5 7 mph 1018.7mb 69f 60f
5:12 6 8 mph 1018.7mb 69f 60f
5:06 5 9 mph 1018.6mb 69f 61f
5:00 6 9 mph 1018.6mb 69f 61f
4:54 7 9 mph 1018.6mb 69f 61f
4:48 7 9 mph 1018.5mb 69f 60f
4:42 7 9 mph 1018.5mb 69f 61f
4:36 8 9 mph 1018.5mb 69f 61f
4:30 7 10 mph 1018.5mb 69f 61f
4:24 7 10 mph 1018.4mb 69f 61f
4:18 10 13 mph 1018.4mb 69f 61f
4:12 2 5 mph 1018.3mb 69f 61f
4:06 3 5 mph 1018.3mb 69f 61f
4:00 3 6 mph 1018.3mb 69f 61f
3:54 5 6 mph 1018.3mb 69f 61f
3:48 3 6 mph 1018.3mb 69f 61f
3:42 3 6 mph 1018.3mb 69f 61f
3:36 5 6 mph 1018.2mb 69f 61f
3:30 3 6 mph 1018.2mb 69f 61f
3:24 5 6 mph 1018.1mb 69f 61f
3:18 5 6 mph 1018.1mb 69f 61f
3:12 5 6 mph 1018.1mb 69f 61f
3:06 3 5 mph 1018mb 69f 61f
3:00 3 6 mph 1018.1mb 69f 61f
2:54 5 6 mph 1018.1mb 69f 61f
2:48 5 6 mph 1018.1mb 69f 61f
2:42 3 5 mph 1018mb 69f 61f
2:36 2 3 mph 1018.1mb 69f 61f
2:30 2 3 mph 1018.1mb 69f 61f
2:24 2 3 mph 1018.1mb 69f 61f
2:18 2
mph
1018mb 69f 61f
2:12 2 5 mph 1018.1mb 69f 61f
2:06 2 6 mph 1018.1mb 69f 61f
2:00 5 6 mph 1018.1mb 69f 61f
1:54 2 5 mph 1018mb 69f 61f
1:48 3 6 mph 1018mb 69f 61f
1:42 5 8 mph 1018mb 69f 61f
1:36 6 8 mph 1018mb 69f 61f
1:30 6 8 mph 1018mb 69f 61f
1:24 6 9 mph 1018mb 69f 61f
1:18 8 11 mph 1018.1mb 69f 61f
1:12 9 13 mph 1018.1mb 69f 62f
1:06 13 15 mph 1018mb 69f 61f
1:00 13 14 mph 1018mb 69f 61f
12:54 13 15 mph 1018mb 69f 61f
12:48 14 15 mph 1018mb 69f 62f
12:42 10 11 mph 1017.9mb 69f 62f
12:36 8 10 mph 1017.9mb 69f 62f
12:30 7 10 mph 1017.8mb 69f 62f
12:24 8 11 mph 1017.8mb 69f 62f
12:18 6 13 mph 1017.9mb 69f 63f
12:12 6 10 mph 1017.9mb 69f 62f
12:06 6 9 mph 1017.9mb 69f 62f
12:00 7 8 mph 1017.9mb 69f 61f
dom 07/24 11:54 3 5 mph 1017.9mb 69f 61f
11:48 5 7 mph 1017.9mb 69f 61f
11:42 6 8 mph 1017.8mb 69f 61f
11:36 3 6 mph 1017.8mb 69f 61f
11:30 2 5 mph 1017.8mb 68f 61f
11:24 3 5 mph 1017.8mb 68f 62f
11:18 2 3 mph 1017.7mb 68f 62f
11:12 2 5 mph 1017.8mb 69f 62f
11:06 2 3 mph 1017.8mb 69f 63f
11:00 2 6 mph 1017.8mb 69f 63f
10:54 5 6 mph 1017.8mb 69f 63f
10:48 6 7 mph 1017.7mb - -
10:42 6 8 mph 1017.8mb - -
10:36 7 8 mph 1017.8mb - -
10:30 7 10 mph 1017.8mb 68f 64f
10:24 7 8 mph 1017.7mb 68f 64f
10:18 6 8 mph 1017.7mb 68f 64f
10:12 7 8 mph 1017.7mb 68f 64f
10:06 7 9 mph 1017.7mb 68f 64f
10:00 2 6 mph 1017.7mb 68f 64f
9:54 5 6 mph 1017.6mb 68f 64f
9:48 3 7 mph 1017.6mb 68f 64f
9:42 3 6 mph 1017.5mb 68f 64f
9:36 2 7 mph 1017.5mb 68f 64f
9:30 5 6 mph 1017.4mb 68f 64f
9:24 5 8 mph 1017.3mb 68f 64f
9:18 7 8 mph 1017.3mb 68f 64f
9:12 6 10 mph 1017.2mb 68f 64f
9:06 9 10 mph 1017.2mb 68f 64f
9:00 10
mph
1017.1mb 68f 65f
8:54 9 10 mph 1017mb 68f 65f
8:48 8 11 mph 1017mb 68f 65f
8:42 9 11 mph 1016.9mb 68f 66f
8:36 6 9 mph 1016.9mb 68f 67f
8:30 5 8 mph 1016.9mb 68f 68f
8:24  -  6 mph 1016.9mb 68f 69f
8:18 3 9 mph - 68f 68f
8:12 7 9 mph - 68f 68f
8:06 7 8 mph - 69f 68f
8:00  -  mph 1017mb 69f -
7:54  -  mph 1017mb 69f -
7:48 7 8 mph 1017mb 69f -
7:42  -  2 mph 1017mb 69f -
7:36  -  6 mph 1017mb 69f -
7:30 5 7 mph - 69f -
7:24 3 6 mph - 69f -
7:18 3 5 mph 1016.9mb 69f 69f
7:12 3 5 mph 1016.9mb 69f 70f
7:06 3 5 mph 1016.9mb 69f 70f
7:00  -  mph - 69f 70f
6:54  -  mph - 69f 70f
6:48 3 5 mph - 68f -
6:42 3 5 mph - 69f -
6:36 2 5 mph - 68f -
6:30 2 6 mph 1017mb 68f -
6:24 5 7 mph 1017.1mb 68f -
6:18 3 7 mph 1017.1mb 68f -
6:12 5 7 mph 1017.1mb 68f -
6:06 2 6 mph 1017.2mb 68f -
6:00 1 3 mph - 68f 73f
5:54 2 5 mph - 68f 73f
5:48  -  3 mph 1017.2mb 68f -
5:42 1 5 mph 1017.2mb 68f -
5:36  -  2 mph 1017.3mb 68f -
5:30 1 9 mph - - -
5:24 6 7 mph - - -
5:18 1 6 mph - 69f 72f
5:12 2 6 mph - 69f 72f
5:06 2 10 mph - 69f 71f
5:00  -  mph - 69f 71f
4:54  -  mph - 69f 73f
4:48 6 9 mph - - -
4:42 8 10 mph - - -
4:36 6 8 mph - - -
4:30 6 10 mph - 70f -
4:24 5 9 mph - 70f -
4:18  -  2 mph - 70f -
4:12  -  2 mph - 70f -
4:06  -  5 mph - 70f -
4:00  -  mph - 70f 73f
3:54  -  mph - 70f 73f
3:48  -  3 mph - - -
3:42 1 2 mph - - -
3:36  -  6 mph - - -
3:30 5 7 mph - 70f -
3:24 7 10 mph - 70f -
3:18 8 11 mph 1017.8mb 70f 70f
3:12 8 11 mph 1017.8mb 70f 71f
3:06 9 11 mph 1017.8mb 70f 70f
3:00  -  mph - 70f 71f
2:54  -  mph - 70f 71f
2:48 3 8 mph - 70f 71f
2:42 5 9 mph - 70f 71f
2:36 2 7 mph - 70f 71f
2:30 2 5 mph 1018mb 70f 72f
2:24  -  5 mph 1018mb 70f 72f
2:18 1 5 mph 1018.1mb 70f 72f
2:12 2 6 mph 1018.2mb 70f 72f
2:06  -  3 mph 1018.2mb 70f 73f
2:00 1 5 mph 1018.3mb 70f 72f
1:54 1 5 mph 1018.3mb 70f 72f
1:48 2 9 mph 1018.4mb 69f 71f
1:42 5 14 mph 1018.4mb 69f 70f
1:36 10 13 mph 1018.4mb 69f 68f
1:30 9 14 mph 1018.5mb 69f 68f
1:24 11 16 mph 1018.5mb 69f 68f
1:18 10 15 mph 1018.5mb 69f 67f
1:12 11 16 mph 1018.5mb 69f 67f
1:06 14 17 mph 1018.6mb 69f 67f
1:00 13 15 mph 1018.7mb 69f 67f
12:54 11 15 mph 1018.7mb 69f 67f
12:48 11 16 mph 1018.8mb 69f 67f
12:42 11 15 mph 1018.8mb 69f 67f
12:36 10 15 mph 1018.8mb 69f 67f
12:30 10 13 mph 1018.9mb 69f 68f
12:24 7 14 mph 1018.9mb 69f 68f
12:18 7 14 mph 1018.9mb 69f 67f
12:12 8 13 mph 1019mb 69f 67f
12:06 9 14 mph 1019.1mb 69f 67f
12:00 8 14 mph 1019.2mb 69f 67f
11:54 10 13 mph 1019.2mb 69f 66f
11:48 9 14 mph 1019.2mb 69f 66f
11:42 9 14 mph 1019.3mb 69f 66f
11:36 8 11 mph 1019.3mb 69f 66f
11:30 7 11 mph 1019.4mb 69f 66f
11:24 7 10 mph 1019.4mb 68f 66f
11:18 7 10 mph 1019.5mb 68f 66f
11:12 6 10 mph 1019.4mb 68f 65f
11:06 7 9 mph 1019.4mb 68f 65f
11:00 5 8 mph 1019.4mb 68f 65f
10:54 3 7 mph 1019.5mb 68f 65f
10:48 3 6 mph 1019.5mb 68f 65f
10:42 2 6 mph 1019.5mb 68f 64f
10:36 2 6 mph 1019.5mb 68f 64f
10:30 2 6 mph 1019.6mb 68f 64f
10:24 5 6 mph 1019.7mb 68f 63f
10:18 2 6 mph 1019.7mb 68f 63f
10:12 3 5 mph 1019.8mb 68f 64f
10:06 1 5 mph 1019.9mb 68f 64f
10:00 1 5 mph 1019.9mb 68f 64f
9:54 2 5 mph 1020mb 68f 64f
9:48 1 3 mph 1020mb 68f 64f
9:42 1 2 mph 1020.1mb 68f 63f
9:36  -  5 mph 1020.2mb 68f 63f
9:30 2 5 mph 1020.2mb 68f 62f
9:24 2 5 mph 1020.2mb 68f 62f
9:18 2 6 mph 1020.3mb 68f 62f
9:12 2 5 mph 1020.3mb 68f 61f
9:06 1 2 mph 1020.3mb 68f 61f
9:00 2 3 mph 1020.3mb 68f 61f
8:54 3 6 mph 1020.2mb 68f 60f
8:48 5 6 mph 1020.2mb 68f 60f
8:42 6
mph
1020.2mb 68f 60f
8:36 3 7 mph 1020.3mb 68f 60f
8:30 2 3 mph 1020.2mb 68f 60f
8:24 2 5 mph 1020.3mb 68f 60f
8:18  -  2 mph 1020.2mb 68f 60f
8:12 2 3 mph 1020.2mb 68f 60f
8:06  -  2 mph 1020.2mb 68f 59f
8:00 1 2 mph 1020.2mb 68f 59f
7:54  -  1 mph 1020.2mb 68f 59f
7:48  -  2 mph 1020.3mb 68f 59f
7:42 1 2 mph 1020.3mb 68f 59f
7:36 1 2 mph 1020.3mb 68f 59f
7:30 1 2 mph 1020.3mb 68f 59f
7:24  -  1 mph 1020.2mb 68f 59f
7:18  -  2 mph 1020.2mb 68f 59f
7:12 1 2 mph 1020.3mb 68f 58f
7:06 2
mph
1020.3mb 68f 58f
7:00 1 2 mph 1020.3mb 68f 58f
6:54 2 3 mph 1020.2mb 68f 58f
6:48 2 5 mph 1020.3mb 68f 58f
6:42 2 3 mph 1020.3mb 68f 58f
6:36 3 5 mph 1020.2mb 68f 58f
6:30 3 5 mph 1020.2mb 68f 58f
6:24 3 5 mph 1020.2mb 68f 58f
6:18 5
mph
1020.3mb 68f 58f
6:12 3 5 mph 1020.3mb 68f 58f
6:06 3 6 mph 1020.3mb 68f 58f
6:00 3 6 mph 1020.4mb 68f 60f
5:54 5 8 mph 1020.4mb 68f 60f
5:48 3 5 mph 1020.4mb 68f 59f
5:42 2 3 mph 1020.4mb 68f 60f
5:36 3 5 mph 1020.4mb 68f 60f
5:30 6 10 mph 1020.3mb 68f 60f
5:24 9 10 mph 1020.3mb 68f 60f
5:18 9 10 mph 1020.3mb 68f 60f
5:12 8 11 mph 1020.3mb 68f 60f
5:06 9 13 mph 1020.4mb 68f 60f
5:00 10 11 mph 1020.4mb 68f 60f
4:54 11 16 mph 1020.4mb 68f 60f
4:48 14 16 mph 1020.4mb 68f 60f
4:42 15 16 mph 1020.5mb 68f 60f
4:36 13 14 mph 1020.5mb 68f 60f
4:30 14 16 mph 1020.5mb 68f 60f
4:24 13 15 mph 1020.5mb 68f 60f
4:18 13 14 mph 1020.6mb 68f 60f
4:12 13 15 mph 1020.7mb 69f 60f
4:06 14 16 mph 1020.7mb 69f 60f
4:00 8 13 mph 1020.7mb 69f 61f
3:54 2 7 mph 1020.7mb 68f 60f
3:48 1 2 mph 1020.8mb 69f 59f
3:42  -  2 mph 1020.8mb 69f 59f
3:36 2
mph
1020.8mb 69f 59f
3:30  -  3 mph 1020.8mb 69f 60f
3:24 2 5 mph 1020.9mb 69f 60f
3:18 5 6 mph 1020.9mb 69f 60f
3:12 3 6 mph 1020.9mb 69f 61f
3:06 1 7 mph 1021mb 69f 62f
3:00 6 9 mph 1021mb 69f 61f
2:54 8 11 mph 1021.1mb 69f 61f
2:48 8 10 mph 1021.1mb 69f 62f
2:42 9 11 mph 1021.2mb 69f 61f
2:36 8 10 mph 1021.2mb 69f 61f
2:30 9 11 mph 1021.3mb 69f 61f
2:24 9 11 mph 1021.3mb 69f 61f
2:18 9 11 mph 1021.4mb 69f 61f
2:12 9 11 mph 1021.4mb 69f 60f
2:06 9 11 mph 1021.4mb 69f 60f
2:00 9 11 mph 1021.6mb 69f 60f
1:54 9 11 mph 1021.6mb 69f 61f
1:48 8 11 mph 1021.7mb 69f 61f
1:42 8 10 mph 1021.7mb 69f 61f
1:36 9 13 mph 1021.8mb 69f 61f
1:30 10 14 mph 1021.8mb 69f 61f
1:24 10 13 mph 1021.9mb 69f 61f
1:18 10 14 mph 1021.9mb 69f 61f
1:12 9 10 mph 1022mb 69f 61f
1:06 9 13 mph 1022mb 69f 61f
1:00 11 16 mph 1022mb 69f 62f
12:54 11 14 mph 1022mb 69f 62f
12:48 13 16 mph 1022mb 69f 62f
12:42 8 15 mph 1022mb 69f 62f
12:36 11 15 mph 1022mb 69f 62f
12:30 11 14 mph 1022mb 68f 62f
12:24 11 14 mph 1022.1mb 68f 62f
12:18 10 14 mph 1022.1mb 68f 61f
12:12 10 14 mph 1022.1mb 68f 61f
12:06 13 16 mph 1022.2mb 68f 61f
12:00 13 15 mph 1022.3mb 68f 61f
sáb 07/23 11:54 11 16 mph 1022.3mb 68f 61f
11:48 14 17 mph 1022.3mb 68f 61f
11:42 11 15 mph 1022.3mb 68f 61f
11:36 13 15 mph 1022.4mb 68f 61f
11:30 11 15 mph 1022.4mb 68f 61f
11:24 14 16 mph 1022.5mb 68f 61f
11:18 10 16 mph 1022.6mb 68f 61f
11:12 13 17 mph 1022.7mb 68f 61f
11:06 13 16 mph 1022.8mb 68f 61f
11:00 14 18 mph 1022.8mb 68f 61f
10:54 14 17 mph 1022.8mb 68f 61f
10:48 13 16 mph 1022.9mb 68f 61f
10:42 14 18 mph 1022.9mb 68f 62f
10:36 14 17 mph 1023mb 68f 62f
10:30 16 21 mph 1023mb 68f 62f
10:24 17 21 mph 1023.1mb 68f 62f
10:18 17 20 mph 1023.1mb 68f 62f
10:12 17 21 mph 1023.2mb 68f 62f
10:06 14 20 mph 1023.2mb 68f 62f
10:00 16 20 mph 1023.2mb 68f 62f
9:54 14 21 mph 1023.1mb 68f 62f
9:48 18 22 mph 1023.1mb 68f 62f
9:42 14 18 mph 1023.1mb 68f 62f
9:36 18 22 mph 1023.1mb 68f 62f
9:30 15 18 mph 1023mb 69f 62f
9:24 16 21 mph 1023.1mb 69f 62f
9:18 17 22 mph 1023mb 69f 62f
9:12 18 22 mph 1023.1mb 68f 63f
9:06 16 22 mph 1023.1mb 68f 63f
9:00 16 20 mph 1023mb 68f 63f
8:54 16 18 mph 1023mb 68f 63f
8:48 15 17 mph 1023mb 68f 63f
8:42 14 17 mph 1023.1mb 68f 63f
8:36 13 15 mph 1023.1mb 68f 63f
8:30 11 15 mph 1023.2mb 68f 64f
8:24 11 16 mph 1023.2mb 68f 64f
8:18 13 15 mph - 68f 64f
8:12 14 16 mph - 68f 64f
8:06 13 15 mph - 68f 64f
8:00  -  mph - 68f 64f
7:54  -  mph - 68f 64f
7:48 13 16 mph 1023.3mb - -
7:42 11 15 mph 1023.3mb - -
7:36 13 15 mph 1023.3mb - -
7:30 14 17 mph 1023.3mb - -
7:24 13 16 mph 1023.4mb - -
7:18  -  mph 1023.5mb 68f 65f
7:12  -  mph 1023.5mb 68f 64f
7:06  -  mph 1023.5mb 68f 65f
7:00  -  mph - 68f 65f
6:54  -  mph - 68f 65f
6:48  -  mph - 68f -
6:42  -  mph - 69f -
6:36  -  mph - 68f -
6:30 10 14 mph - - -
6:24 10 13 mph - - -
6:18 8 13 mph - 68f -
6:12 10 14 mph - 68f -
6:06 8 14 mph - 68f -
6:00  -  mph - 68f 65f
5:54  -  mph - 68f 65f
5:48 11 14 mph 1024.2mb - -
5:42 11 14 mph 1024.3mb - -
5:36 10 13 mph 1024.4mb - -
5:30 10 13 mph - - -